Time;durP1;ratioP1;P1;durP2;ratioP2;P2;SDS_P1;SDS_P2;PMS_P1;PMS_P2;Temp;Humidity;BMP_temperature;BMP_pressure;BME280_temperature;BME280_humidity;BME280_pressure;Samples;Min_cycle;Max_cycle;Signal;HPM_P1;HPM_P2
2023/09/15 00:01:52;;;;;;;;;;;;;;;;;;4974756;28;20941;-62
2023/09/15 00:04:17;;;;;;;;;;;;;;;;;;4992106;28;19921;-62
2023/09/15 00:06:46;;;;;;;;;;;;;;;;;;4986259;28;19922;-63
2023/09/15 00:09:14;;;;;;;;;;;;;;;;;;4988007;28;19995;-63
2023/09/15 00:11:40;;;;;;;;;;;;;;;;;;4989784;28;19922;-63
2023/09/15 00:14:10;;;;;;;;;;;;;;;;;;4972671;28;21783;-62
2023/09/15 00:16:39;;;;;;;;;;;;;;;;;;4993202;28;20055;-64
2023/09/15 00:19:06;;;;;;;;;;;;;;;;;;4959262;28;19929;-62
2023/09/15 00:21:32;;;;;;;;;;;;;;;;;;4991825;28;20011;-62
2023/09/15 00:23:57;;;;;;;;;;;;;;;;;;4974656;28;19941;-63
2023/09/15 00:26:25;;;;;;;;;;;;;;;;;;4974298;28;19917;-63
2023/09/15 00:28:56;;;;;;;;;;;;;;;;;;4957571;28;19965;-63
2023/09/15 00:31:24;;;;;;;;;;;;;;;;;;4992888;28;19985;-63
2023/09/15 00:33:55;;;;;;;;;;;;;;;;;;4950502;28;20007;-63
2023/09/15 00:36:23;;;;;;;;;;;;;;;;;;4989894;28;19922;-64
2023/09/15 00:38:48;;;;;;;;;;;;;;;;;;4972940;28;19922;-62
2023/09/15 00:41:18;;;;;;;;;;;;;;;;;;4971244;28;19922;-63
2023/09/15 00:43:43;;;;;;;;;;;;;;;;;;4976286;28;19924;-63
2023/09/15 00:46:14;;;;;;;;;;;;;;;;;;4962651;28;19991;-63
2023/09/15 00:48:42;;;;;;;;;;;;;;;;;;4993994;28;19928;-63
2023/09/15 00:51:09;;;;;;;;;;;;;;;;;;4978010;28;19921;-63
2023/09/15 00:53:35;;;;;;;;;;;;;;;;;;4975849;28;19944;-63
2023/09/15 00:56:03;;;;;;;;;;;;;;;;;;4976435;28;20428;-63
2023/09/15 00:58:33;;;;;;;;;;;;;;;;;;4975433;28;20028;-63
2023/09/15 01:01:00;;;;;;;;;;;;;;;;;;4978822;28;19921;-63
2023/09/15 01:03:26;;;;;;;;;;;;;;;;;;4994228;28;19921;-63
2023/09/15 01:05:53;;;;;;;;;;;;;;;;;;4978394;28;19921;-63
2023/09/15 01:08:22;;;;;;;;;;;;;;;;;;4993673;28;19928;-63
2023/09/15 01:10:48;;;;;;;;;;;;;;;;;;4977473;28;20472;-63
2023/09/15 01:13:13;;;;;;;;;;;;;;;;;;4977868;28;19960;-63
2023/09/15 01:15:44;;;;;;;;;;;;;;;;;;4977415;28;20039;-63
2023/09/15 01:18:09;;;;;;;;;;;;;;;;;;4961563;28;19936;-63
2023/09/15 01:20:35;;;;;;;;;;;;;;;;;;4977041;28;19931;-63
2023/09/15 01:23:00;;;;;;;;;;;;;;;;;;4976567;28;20029;-63
2023/09/15 01:25:29;;;;;;;;;;;;;;;;;;4994497;28;19917;-63
2023/09/15 01:27:55;;;;;;;;;;;;;;;;;;4973382;28;20419;-63
2023/09/15 01:30:22;;;;;;;;;;;;;;;;;;4993786;28;19921;-62
2023/09/15 01:32:51;;;;;;;;;;;;;;;;;;4961907;28;20996;-63
2023/09/15 01:35:19;;;;;;;;;;;;;;;;;;4975239;28;19967;-62
2023/09/15 01:37:47;;;;;;;;;;;;;;;;;;4977437;28;19921;-63
2023/09/15 01:40:12;;;;;;;;;;;;;;;;;;4994307;28;19924;-62
2023/09/15 01:42:40;;;;;;;;;;;;;;;;;;4988028;28;20419;-63
2023/09/15 01:45:06;;;;;;;;;;;;;;;;;;4996466;28;21885;-63
2023/09/15 01:47:31;;;;;;;;;;;;;;;;;;4976166;28;19917;-62
2023/09/15 01:50:02;;;;;;;;;;;;;;;;;;4976787;28;19928;-65
2023/09/15 01:52:27;;;;;;;;;;;;;;;;;;4976468;28;21272;-63
2023/09/15 01:54:56;;;;;;;;;;;;;;;;;;4970412;28;19921;-64
2023/09/15 01:57:27;;;;;;;;;;;;;;;;;;4959397;28;21823;-63
2023/09/15 01:59:55;;;;;;;;;;;;;;;;;;4975267;28;19927;-63
2023/09/15 02:02:22;;;;;;;;;;;;;;;;;;4970943;28;19922;-62
2023/09/15 02:04:50;;;;;;;;;;;;;;;;;;4992173;28;19921;-63
2023/09/15 02:07:21;;;;;;;;;;;;;;;;;;4966057;28;20028;-62
2023/09/15 02:09:46;;;;;;;;;;;;;;;;;;4977255;28;20400;-62
2023/09/15 02:12:12;;;;;;;;;;;;;;;;;;4992396;28;20017;-63
2023/09/15 02:14:37;;;;;;;;;;;;;;;;;;4988148;28;19929;-63
2023/09/15 02:17:05;;;;;;;;;;;;;;;;;;4959750;28;19925;-63
2023/09/15 02:19:31;;;;;;;;;;;;;;;;;;4966189;28;19913;-63
2023/09/15 02:21:58;;;;;;;;;;;;;;;;;;4944597;28;20033;-62
2023/09/15 02:24:24;;;;;;;;;;;;;;;;;;4965608;28;19937;-63
2023/09/15 02:26:54;;;;;;;;;;;;;;;;;;4977403;28;19991;-63
2023/09/15 02:29:20;;;;;;;;;;;;;;;;;;4989730;28;20008;-62
2023/09/15 02:31:45;;;;;;;;;;;;;;;;;;4962258;28;19918;-62
2023/09/15 02:34:13;;;;;;;;;;;;;;;;;;4983851;28;19921;-65
2023/09/15 02:36:38;;;;;;;;;;;;;;;;;;4971084;28;19925;-62
2023/09/15 02:39:06;;;;;;;;;;;;;;;;;;4984978;28;19921;-63
2023/09/15 02:41:32;;;;;;;;;;;;;;;;;;4965152;28;19925;-62
2023/09/15 02:44:02;;;;;;;;;;;;;;;;;;4958124;28;19997;-63
2023/09/15 02:46:30;;;;;;;;;;;;;;;;;;4973559;28;19987;-63
2023/09/15 02:48:58;;;;;;;;;;;;;;;;;;4975491;28;19925;-62
2023/09/15 02:51:24;;;;;;;;;;;;;;;;;;4986073;28;20075;-63
2023/09/15 02:53:51;;;;;;;;;;;;;;;;;;4974384;28;20001;-63
2023/09/15 02:56:16;;;;;;;;;;;;;;;;;;4958489;28;19933;-63
2023/09/15 02:58:46;;;;;;;;;;;;;;;;;;4975437;28;20313;-63
2023/09/15 03:01:11;;;;;;;;;;;;;;;;;;4958584;28;19969;-63
2023/09/15 03:03:40;;;;;;;;;;;;;;;;;;4974130;28;19979;-62
2023/09/15 03:06:05;;;;;;;;;;;;;;;;;;4976544;28;19922;-63
2023/09/15 03:08:33;;;;;;;;;;;;;;;;;;4992445;28;19963;-62
2023/09/15 03:10:59;;;;;;;;;;;;;;;;;;4973717;28;19917;-63
2023/09/15 03:13:26;;;;;;;;;;;;;;;;;;4958311;28;19929;-62
2023/09/15 03:15:55;;;;;;;;;;;;;;;;;;4992170;28;19936;-63
2023/09/15 03:18:20;;;;;;;;;;;;;;;;;;4968820;28;19921;-62
2023/09/15 03:20:48;;;;;;;;;;;;;;;;;;4991673;28;20031;-62
2023/09/15 03:23:15;;;;;;;;;;;;;;;;;;4971488;28;19921;-63
2023/09/15 03:25:43;;;;;;;;;;;;;;;;;;4990679;28;20448;-63
2023/09/15 03:28:08;;;;;;;;;;;;;;;;;;4958673;28;20427;-63
2023/09/15 03:30:33;;;;;;;;;;;;;;;;;;4975070;28;19922;-63
2023/09/15 03:33:04;;;;;;;;;;;;;;;;;;4959063;28;19925;-63
2023/09/15 03:35:31;;;;;;;;;;;;;;;;;;4991437;28;20360;-64
2023/09/15 03:37:57;;;;;;;;;;;;;;;;;;4991245;28;20167;-63
2023/09/15 03:40:25;;;;;;;;;;;;;;;;;;4973039;28;19927;-63
2023/09/15 03:42:55;;;;;;;;;;;;;;;;;;4958511;28;19929;-63
2023/09/15 03:45:23;;;;;;;;;;;;;;;;;;4969927;28;19927;-63
2023/09/15 03:47:49;;;;;;;;;;;;;;;;;;4991258;28;19921;-63
2023/09/15 03:50:19;;;;;;;;;;;;;;;;;;4989106;28;19932;-63
2023/09/15 03:52:47;;;;;;;;;;;;;;;;;;4972081;28;19998;-63
2023/09/15 03:55:13;;;;;;;;;;;;;;;;;;4972193;28;19925;-63
2023/09/15 03:57:38;;;;;;;;;;;;;;;;;;4957380;28;19944;-63
2023/09/15 04:00:05;;;;;;;;;;;;;;;;;;4989442;28;20790;-64
2023/09/15 04:02:30;;;;;;;;;;;;;;;;;;4969921;28;20063;-64
2023/09/15 04:04:57;;;;;;;;;;;;;;;;;;4969932;28;20596;-63
2023/09/15 04:07:23;;;;;;;;;;;;;;;;;;4969345;28;20019;-64
2023/09/15 04:09:48;;;;;;;;;;;;;;;;;;4972850;28;19917;-64
2023/09/15 04:12:13;;;;;;;;;;;;;;;;;;4985908;28;19974;-63
2023/09/15 04:14:39;;;;;;;;;;;;;;;;;;4985759;28;19993;-63
2023/09/15 04:17:04;;;;;;;;;;;;;;;;;;4979153;28;19936;-64
2023/09/15 04:19:32;;;;;;;;;;;;;;;;;;4970659;28;19979;-64
2023/09/15 04:22:00;;;;;;;;;;;;;;;;;;4973762;28;20014;-64
2023/09/15 04:24:28;;;;;;;;;;;;;;;;;;4956058;28;19924;-64
2023/09/15 04:26:54;;;;;;;;;;;;;;;;;;4953768;28;19921;-64
2023/09/15 04:29:19;;;;;;;;;;;;;;;;;;4953954;28;19921;-64
2023/09/15 04:31:44;;;;;;;;;;;;;;;;;;4991940;28;19921;-64
2023/09/15 04:34:14;;;;;;;;;;;;;;;;;;4989871;28;20716;-65
2023/09/15 04:36:40;;;;;;;;;;;;;;;;;;4954881;28;20210;-64
2023/09/15 04:39:09;;;;;;;;;;;;;;;;;;4974572;28;20215;-63
2023/09/15 04:41:35;;;;;;;;;;;;;;;;;;4957576;28;20381;-64
2023/09/15 04:44:03;;;;;;;;;;;;;;;;;;4971825;28;19941;-63
2023/09/15 04:46:31;;;;;;;;;;;;;;;;;;4953272;28;20048;-64
2023/09/15 04:48:59;;;;;;;;;;;;;;;;;;4985835;28;19921;-63
2023/09/15 04:51:26;;;;;;;;;;;;;;;;;;4989785;28;19922;-64
2023/09/15 04:53:54;;;;;;;;;;;;;;;;;;4965322;28;19925;-64
2023/09/15 04:56:23;;;;;;;;;;;;;;;;;;4986346;28;19929;-63
2023/09/15 04:58:48;;;;;;;;;;;;;;;;;;4949329;28;19999;-64
2023/09/15 05:01:17;;;;;;;;;;;;;;;;;;4970499;28;19953;-62
2023/09/15 05:03:44;;;;;;;;;;;;;;;;;;4984172;28;19940;-63
2023/09/15 05:06:10;;;;;;;;;;;;;;;;;;4967989;28;19921;-64
2023/09/15 05:08:35;;;;;;;;;;;;;;;;;;4962507;28;19918;-63
2023/09/15 05:11:00;;;;;;;;;;;;;;;;;;4985529;28;19929;-64
2023/09/15 05:13:28;;;;;;;;;;;;;;;;;;4955276;28;19922;-64
2023/09/15 05:15:53;;;;;;;;;;;;;;;;;;4957066;28;19955;-65
2023/09/15 05:18:21;;;;;;;;;;;;;;;;;;4966829;28;19917;-64
2023/09/15 05:20:49;;;;;;;;;;;;;;;;;;4980574;28;19928;-64
2023/09/15 05:23:17;;;;;;;;;;;;;;;;;;4953075;28;20013;-64
2023/09/15 05:25:45;;;;;;;;;;;;;;;;;;4968871;28;19922;-65
2023/09/15 05:28:10;;;;;;;;;;;;;;;;;;4964440;28;19924;-63
2023/09/15 05:30:38;;;;;;;;;;;;;;;;;;4974265;28;19932;-66
2023/09/15 05:33:08;;;;;;;;;;;;;;;;;;4976717;28;20293;-65
2023/09/15 05:35:36;;;;;;;;;;;;;;;;;;4972539;28;19929;-63
2023/09/15 05:38:01;;;;;;;;;;;;;;;;;;4975349;28;20895;-64
2023/09/15 05:40:26;;;;;;;;;;;;;;;;;;4993998;28;19925;-64
2023/09/15 05:42:57;;;;;;;;;;;;;;;;;;4954932;28;19960;-64
2023/09/15 05:45:25;;;;;;;;;;;;;;;;;;4974084;28;19921;-64
2023/09/15 05:47:53;;;;;;;;;;;;;;;;;;4975542;28;19924;-64
2023/09/15 05:50:18;;;;;;;;;;;;;;;;;;4976411;28;19921;-63
2023/09/15 05:52:43;;;;;;;;;;;;;;;;;;4991974;28;19936;-63
2023/09/15 05:55:09;;;;;;;;;;;;;;;;;;4973884;28;19921;-64
2023/09/15 05:57:36;;;;;;;;;;;;;;;;;;4992307;28;20449;-64
2023/09/15 06:00:04;;;;;;;;;;;;;;;;;;4992636;28;19960;-64
2023/09/15 06:02:29;;;;;;;;;;;;;;;;;;4990138;28;19917;-65
2023/09/15 06:04:59;;;;;;;;;;;;;;;;;;4977331;28;19921;-64
2023/09/15 06:07:27;;;;;;;;;;;;;;;;;;4994757;28;19936;-63
2023/09/15 06:09:52;;;;;;;;;;;;;;;;;;4973318;28;19925;-63
2023/09/15 06:12:17;;;;;;;;;;;;;;;;;;4958657;28;20004;-64
2023/09/15 06:14:42;;;;;;;;;;;;;;;;;;4992828;28;20648;-64
2023/09/15 06:17:08;;;;;;;;;;;;;;;;;;4974230;28;19922;-64
2023/09/15 06:19:36;;;;;;;;;;;;;;;;;;4961264;28;20977;-65
2023/09/15 06:22:02;;;;;;;;;;;;;;;;;;4993916;28;19921;-64
2023/09/15 06:24:28;;;;;;;;;;;;;;;;;;4975889;28;19925;-64
2023/09/15 06:26:54;;;;;;;;;;;;;;;;;;4960517;28;19921;-64
2023/09/15 06:29:20;;;;;;;;;;;;;;;;;;4994048;28;19967;-65
2023/09/15 06:31:48;;;;;;;;;;;;;;;;;;4991533;28;19949;-64
2023/09/15 06:34:16;;;;;;;;;;;;;;;;;;4978338;28;19926;-64
2023/09/15 06:36:41;;;;;;;;;;;;;;;;;;4974680;28;19921;-65
2023/09/15 06:39:07;;;;;;;;;;;;;;;;;;4975953;28;19928;-64
2023/09/15 06:41:37;;;;;;;;;;;;;;;;;;4976678;28;20007;-65
2023/09/15 06:44:02;;;;;;;;;;;;;;;;;;4973216;28;20003;-66
2023/09/15 06:46:27;;;;;;;;;;;;;;;;;;4961425;28;19917;-66
2023/09/15 06:48:55;;;;;;;;;;;;;;;;;;4992541;28;21260;-65
2023/09/15 06:51:23;;;;;;;;;;;;;;;;;;4975078;28;20380;-67
2023/09/15 06:53:54;;;;;;;;;;;;;;;;;;4975265;28;19933;-65
2023/09/15 06:56:19;;;;;;;;;;;;;;;;;;4993929;28;19925;-66
2023/09/15 06:58:46;;;;;;;;;;;;;;;;;;4991831;28;19930;-65
2023/09/15 07:01:11;;;;;;;;;;;;;;;;;;4959282;28;19917;-65
2023/09/15 07:03:37;;;;;;;;;;;;;;;;;;4975904;28;19943;-65
2023/09/15 07:06:06;;;;;;;;;;;;;;;;;;4995346;28;20368;-66
2023/09/15 07:08:31;;;;;;;;;;;;;;;;;;4956695;28;19929;-67
2023/09/15 07:10:56;;;;;;;;;;;;;;;;;;4993241;28;19957;-65
2023/09/15 07:13:22;;;;;;;;;;;;;;;;;;4975773;28;19936;-65
2023/09/15 07:15:48;;;;;;;;;;;;;;;;;;4976303;28;20396;-65
2023/09/15 07:18:18;;;;;;;;;;;;;;;;;;4975232;28;20008;-66
2023/09/15 07:20:46;;;;;;;;;;;;;;;;;;4959280;28;19925;-64
2023/09/15 07:23:15;;;;;;;;;;;;;;;;;;4975344;28;19928;-64
2023/09/15 07:25:40;;;;;;;;;;;;;;;;;;5008619;28;20292;-65
2023/09/15 07:28:08;;;;;;;;;;;;;;;;;;4972186;28;19917;-64
2023/09/15 07:30:36;;;;;;;;;;;;;;;;;;4977774;28;19925;-66
2023/09/15 07:33:03;;;;;;;;;;;;;;;;;;4973555;28;19921;-65
2023/09/15 07:35:29;;;;;;;;;;;;;;;;;;5008526;28;19921;-64
2023/09/15 07:37:54;;;;;;;;;;;;;;;;;;4974448;28;20035;-65
2023/09/15 07:40:22;;;;;;;;;;;;;;;;;;4975198;28;19955;-65
2023/09/15 07:42:47;;;;;;;;;;;;;;;;;;4959063;28;19928;-65
2023/09/15 07:45:16;;;;;;;;;;;;;;;;;;4953644;28;19921;-66
2023/09/15 07:47:41;;;;;;;;;;;;;;;;;;4960180;28;19922;-65
2023/09/15 07:50:09;;;;;;;;;;;;;;;;;;4989815;28;19936;-65
2023/09/15 07:52:34;;;;;;;;;;;;;;;;;;4972438;28;20012;-65
2023/09/15 07:54:59;;;;;;;;;;;;;;;;;;4957556;28;19931;-66
2023/09/15 07:57:29;;;;;;;;;;;;;;;;;;4972800;28;19949;-65
2023/09/15 07:59:54;;;;;;;;;;;;;;;;;;4974108;28;19921;-67
2023/09/15 08:02:20;;;;;;;;;;;;;;;;;;4973526;28;19944;-67
2023/09/15 08:04:48;;;;;;;;;;;;;;;;;;4976347;28;19921;-66
2023/09/15 08:07:14;;;;;;;;;;;;;;;;;;4973519;28;19936;-66
2023/09/15 08:09:42;;;;;;;;;;;;;;;;;;4958462;28;19925;-66
2023/09/15 08:12:09;;;;;;;;;;;;;;;;;;4992887;28;19964;-66
2023/09/15 08:14:35;;;;;;;;;;;;;;;;;;4992375;28;19921;-65
2023/09/15 08:17:03;;;;;;;;;;;;;;;;;;4991851;28;19928;-66
2023/09/15 08:19:31;;;;;;;;;;;;;;;;;;4958913;28;19922;-65
2023/09/15 08:21:59;;;;;;;;;;;;;;;;;;4973991;28;20048;-65
2023/09/15 08:24:26;;;;;;;;;;;;;;;;;;4988404;28;19949;-66
2023/09/15 08:26:51;;;;;;;;;;;;;;;;;;4974148;28;20328;-66
2023/09/15 08:29:17;;;;;;;;;;;;;;;;;;4972967;28;19944;-66
2023/09/15 08:31:42;;;;;;;;;;;;;;;;;;4975437;28;19996;-67
2023/09/15 08:34:08;;;;;;;;;;;;;;;;;;4971065;28;19932;-66
2023/09/15 08:36:36;;;;;;;;;;;;;;;;;;4975632;28;20369;-66
2023/09/15 08:39:04;;;;;;;;;;;;;;;;;;4972423;28;19968;-66
2023/09/15 08:41:29;;;;;;;;;;;;;;;;;;4974476;28;20056;-66
2023/09/15 08:43:54;;;;;;;;;;;;;;;;;;4974143;28;20008;-66
2023/09/15 08:46:22;;;;;;;;;;;;;;;;;;4991633;28;19921;-66
2023/09/15 08:48:50;;;;;;;;;;;;;;;;;;4972545;28;19922;-66
2023/09/15 08:51:16;;;;;;;;;;;;;;;;;;4989373;28;20371;-66
2023/09/15 08:53:41;;;;;;;;;;;;;;;;;;4974871;28;19983;-66
2023/09/15 08:56:06;;;;;;;;;;;;;;;;;;4988241;28;19932;-66
2023/09/15 08:58:40;;;;;;;;;;;;;;;;;;4958366;28;20118;-66
2023/09/15 09:01:07;;;;;;;;;;;;;;;;;;4974811;28;20106;-66
2023/09/15 09:03:33;;;;;;;;;;;;;;;;;;4957585;28;20372;-66
2023/09/15 09:05:58;;;;;;;;;;;;;;;;;;4995292;28;20676;-64
2023/09/15 09:08:24;;;;;;;;;;;;;;;;;;4976223;28;20657;-66
2023/09/15 09:10:51;;;;;;;;;;;;;;;;;;4995371;28;19921;-66
2023/09/15 09:13:16;;;;;;;;;;;;;;;;;;4960982;28;19925;-66
2023/09/15 09:15:42;;;;;;;;;;;;;;;;;;4993932;28;21044;-66
2023/09/15 09:18:10;;;;;;;;;;;;;;;;;;4995315;28;19941;-67
2023/09/15 09:20:36;;;;;;;;;;;;;;;;;;4976832;28;20285;-67
2023/09/15 09:23:01;;;;;;;;;;;;;;;;;;4994365;28;19921;-66
2023/09/15 09:25:27;;;;;;;;;;;;;;;;;;4977225;28;19922;-66
2023/09/15 09:27:55;;;;;;;;;;;;;;;;;;4977566;28;19917;-67
2023/09/15 09:30:20;;;;;;;;;;;;;;;;;;4995029;28;19949;-67
2023/09/15 09:32:48;;;;;;;;;;;;;;;;;;4978938;28;19921;-66
2023/09/15 09:35:13;;;;;;;;;;;;;;;;;;4995669;28;19917;-65
2023/09/15 09:37:39;;;;;;;;;;;;;;;;;;4994132;28;19921;-66
2023/09/15 09:40:06;;;;;;;;;;;;;;;;;;4977994;28;19998;-65
2023/09/15 09:42:34;;;;;;;;;;;;;;;;;;4990770;28;21020;-65
2023/09/15 09:44:59;;;;;;;;;;;;;;;;;;4960639;28;20379;-65
2023/09/15 09:47:25;;;;;;;;;;;;;;;;;;4994156;28;19921;-64
2023/09/15 09:49:53;;;;;;;;;;;;;;;;;;4965216;28;19917;-65
2023/09/15 09:52:21;;;;;;;;;;;;;;;;;;4977908;28;19921;-65
2023/09/15 09:54:49;;;;;;;;;;;;;;;;;;4978383;28;19944;-65
2023/09/15 09:57:15;;;;;;;;;;;;;;;;;;4956815;28;19929;-66
2023/09/15 09:59:41;;;;;;;;;;;;;;;;;;4961040;28;19937;-66
2023/09/15 10:02:07;;;;;;;;;;;;;;;;;;4973780;28;19921;-65
2023/09/15 10:04:33;;;;;;;;;;;;;;;;;;4957798;28;19953;-64
2023/09/15 10:07:02;;;;;;;;;;;;;;;;;;4957391;28;20550;-65
2023/09/15 10:09:30;;;;;;;;;;;;;;;;;;4956644;28;20108;-66
2023/09/15 10:11:55;;;;;;;;;;;;;;;;;;4978129;28;20283;-66
2023/09/15 10:14:21;;;;;;;;;;;;;;;;;;4974884;28;20067;-66
2023/09/15 10:16:46;;;;;;;;;;;;;;;;;;4993232;28;19972;-67
2023/09/15 10:19:12;;;;;;;;;;;;;;;;;;4975186;28;20293;-65
2023/09/15 10:21:37;;;;;;;;;;;;;;;;;;4973982;28;19983;-65
2023/09/15 10:24:07;;;;;;;;;;;;;;;;;;4978070;28;20487;-66
2023/09/15 10:26:41;;;;;;;;;;;;;;;;;;4974326;28;21853;-64
2023/09/15 10:29:06;;;;;;;;;;;;;;;;;;4960360;28;19932;-66
2023/09/15 10:31:35;;;;;;;;;;;;;;;;;;4978176;28;20296;-64
2023/09/15 10:34:04;;;;;;;;;;;;;;;;;;4991709;28;19925;-65
2023/09/15 10:36:29;;;;;;;;;;;;;;;;;;4976444;28;19949;-64
2023/09/15 10:38:57;;;;;;;;;;;;;;;;;;4994759;28;19923;-66
2023/09/15 10:41:22;;;;;;;;;;;;;;;;;;4991180;28;19932;-66
2023/09/15 10:43:49;;;;;;;;;;;;;;;;;;4976105;28;21139;-64
2023/09/15 10:46:17;;;;;;;;;;;;;;;;;;4961114;28;19917;-64
2023/09/15 10:48:51;;;;;;;;;;;;;;;;;;4990359;28;19948;-65
2023/09/15 10:51:21;;;;;;;;;;;;;;;;;;4974434;28;19928;-65
2023/09/15 10:53:49;;;;;;;;;;;;;;;;;;4976593;28;19932;-65
2023/09/15 10:56:15;;;;;;;;;;;;;;;;;;4978265;28;19930;-66
2023/09/15 10:58:46;;;;;;;;;;;;;;;;;;4973235;28;19979;-65
2023/09/15 11:01:13;;;;;;;;;;;;;;;;;;4964403;28;19924;-64
2023/09/15 11:03:38;;;;;;;;;;;;;;;;;;4973372;28;19929;-64
2023/09/15 11:06:08;;;;;;;;;;;;;;;;;;4960938;28;21576;-63
2023/09/15 11:08:34;;;;;;;;;;;;;;;;;;4956283;28;20008;-64
2023/09/15 11:10:59;;;;;;;;;;;;;;;;;;4973952;28;19921;-63
2023/09/15 11:13:28;;;;;;;;;;;;;;;;;;4993688;28;19921;-63
2023/09/15 11:15:59;;;;;;;;;;;;;;;;;;4993474;28;19921;-64
2023/09/15 11:18:24;;;;;;;;;;;;;;;;;;4973183;28;19928;-64
2023/09/15 11:20:52;;;;;;;;;;;;;;;;;;4993029;28;20016;-65
2023/09/15 11:23:20;;;;;;;;;;;;;;;;;;4992370;28;19917;-64
2023/09/15 11:25:48;;;;;;;;;;;;;;;;;;4970725;28;19917;-63
2023/09/15 11:28:14;;;;;;;;;;;;;;;;;;4960735;28;20216;-65
2023/09/15 11:30:39;;;;;;;;;;;;;;;;;;4959742;28;19925;-64
2023/09/15 11:33:06;;;;;;;;;;;;;;;;;;4970082;28;19921;-64
2023/09/15 11:35:31;;;;;;;;;;;;;;;;;;4971851;28;19922;-64
2023/09/15 11:37:56;;;;;;;;;;;;;;;;;;4972907;28;19921;-64
2023/09/15 11:40:22;;;;;;;;;;;;;;;;;;4976196;28;19917;-64
2023/09/15 11:42:50;;;;;;;;;;;;;;;;;;4975259;28;20119;-66
2023/09/15 11:45:15;;;;;;;;;;;;;;;;;;4976975;28;20514;-64
2023/09/15 11:47:40;;;;;;;;;;;;;;;;;;4973216;28;19921;-64
2023/09/15 11:50:06;;;;;;;;;;;;;;;;;;4992996;28;19921;-63
2023/09/15 11:52:31;;;;;;;;;;;;;;;;;;4992022;28;19925;-64
2023/09/15 11:54:57;;;;;;;;;;;;;;;;;;4971422;28;19921;-65
2023/09/15 11:57:22;;;;;;;;;;;;;;;;;;4974724;28;19948;-63
2023/09/15 11:59:48;;;;;;;;;;;;;;;;;;4991218;28;19921;-63
2023/09/15 12:02:14;;;;;;;;;;;;;;;;;;4957916;28;19960;-64
2023/09/15 12:04:41;;;;;;;;;;;;;;;;;;4975883;28;19924;-64
2023/09/15 12:07:09;;;;;;;;;;;;;;;;;;4987567;28;19967;-63
2023/09/15 12:09:37;;;;;;;;;;;;;;;;;;4955014;28;19924;-64
2023/09/15 12:12:05;;;;;;;;;;;;;;;;;;4990251;28;19975;-64
2023/09/15 12:14:33;;;;;;;;;;;;;;;;;;4974389;28;19929;-65
2023/09/15 12:17:01;;;;;;;;;;;;;;;;;;4973529;28;19921;-64
2023/09/15 12:19:28;;;;;;;;;;;;;;;;;;4992329;28;19921;-64
2023/09/15 12:21:55;;;;;;;;;;;;;;;;;;4971100;28;21762;-64
2023/09/15 12:24:23;;;;;;;;;;;;;;;;;;4971630;28;19925;-64
2023/09/15 12:26:51;;;;;;;;;;;;;;;;;;4959328;28;19998;-64
2023/09/15 12:29:17;;;;;;;;;;;;;;;;;;4991509;28;19918;-65
2023/09/15 12:31:44;;;;;;;;;;;;;;;;;;4992906;28;19921;-65
2023/09/15 12:34:18;;;;;;;;;;;;;;;;;;4955297;28;19923;-66
2023/09/15 12:36:46;;;;;;;;;;;;;;;;;;4955616;28;19922;-64
2023/09/15 12:39:12;;;;;;;;;;;;;;;;;;4951202;28;20001;-62
2023/09/15 12:41:37;;;;;;;;;;;;;;;;;;4974153;28;19921;-62
2023/09/15 12:44:02;;;;;;;;;;;;;;;;;;4974440;28;19921;-63
2023/09/15 12:46:28;;;;;;;;;;;;;;;;;;4959134;28;19927;-64
2023/09/15 12:48:53;;;;;;;;;;;;;;;;;;4971782;28;20676;-64
2023/09/15 12:51:18;;;;;;;;;;;;;;;;;;4975013;28;19975;-65
2023/09/15 12:53:46;;;;;;;;;;;;;;;;;;4972205;28;19956;-65
2023/09/15 12:56:13;;;;;;;;;;;;;;;;;;4954549;28;19925;-65
2023/09/15 12:58:38;;;;;;;;;;;;;;;;;;4975160;28;19928;-64
2023/09/15 13:01:06;;;;;;;;;;;;;;;;;;4974569;28;19944;-62
2023/09/15 13:03:34;;;;;;;;;;;;;;;;;;4971013;28;20024;-63
2023/09/15 13:06:02;;;;;;;;;;;;;;;;;;4991349;28;20168;-64
2023/09/15 13:08:28;;;;;;;;;;;;;;;;;;4990818;28;19921;-64
2023/09/15 13:10:53;;;;;;;;;;;;;;;;;;4988913;28;19922;-64
2023/09/15 13:13:23;;;;;;;;;;;;;;;;;;4990423;28;19929;-64
2023/09/15 13:15:48;;;;;;;;;;;;;;;;;;4989341;28;19921;-63
2023/09/15 13:18:16;;;;;;;;;;;;;;;;;;4970883;28;20312;-63
2023/09/15 13:20:44;;;;;;;;;;;;;;;;;;4992031;28;19963;-65
2023/09/15 13:23:11;;;;;;;;;;;;;;;;;;4954765;28;20357;-65
2023/09/15 13:25:39;;;;;;;;;;;;;;;;;;4975378;28;19922;-65
2023/09/15 13:28:05;;;;;;;;;;;;;;;;;;4973656;28;19925;-63
2023/09/15 13:30:32;;;;;;;;;;;;;;;;;;4971943;28;19922;-64
2023/09/15 13:32:58;;;;;;;;;;;;;;;;;;4956610;28;19928;-63
2023/09/15 13:35:23;;;;;;;;;;;;;;;;;;4972514;28;19917;-64
2023/09/15 13:37:49;;;;;;;;;;;;;;;;;;4973670;28;19995;-64
2023/09/15 13:40:14;;;;;;;;;;;;;;;;;;4992296;28;20520;-64
2023/09/15 13:42:39;;;;;;;;;;;;;;;;;;4990380;28;19953;-64
2023/09/15 13:45:07;;;;;;;;;;;;;;;;;;4989967;28;20638;-63
2023/09/15 13:47:35;;;;;;;;;;;;;;;;;;4991908;28;19921;-65
2023/09/15 13:50:00;;;;;;;;;;;;;;;;;;4990279;28;20007;-65
2023/09/15 13:52:26;;;;;;;;;;;;;;;;;;4994453;28;19924;-64
2023/09/15 13:54:52;;;;;;;;;;;;;;;;;;4993403;28;19917;-64
2023/09/15 13:57:18;;;;;;;;;;;;;;;;;;4975781;28;19925;-64
2023/09/15 13:59:43;;;;;;;;;;;;;;;;;;4974117;28;19940;-64
2023/09/15 14:02:11;;;;;;;;;;;;;;;;;;4976790;28;19929;-64
2023/09/15 14:04:36;;;;;;;;;;;;;;;;;;4974131;28;20871;-65
2023/09/15 14:07:04;;;;;;;;;;;;;;;;;;4994853;28;19922;-64
2023/09/15 14:09:34;;;;;;;;;;;;;;;;;;4976315;28;20016;-65
2023/09/15 14:12:01;;;;;;;;;;;;;;;;;;4957286;28;20009;-65
2023/09/15 14:14:30;;;;;;;;;;;;;;;;;;4975395;28;20004;-64
2023/09/15 14:16:55;;;;;;;;;;;;;;;;;;4992540;28;20079;-65
2023/09/15 14:19:20;;;;;;;;;;;;;;;;;;4994281;28;19975;-65
2023/09/15 14:21:47;;;;;;;;;;;;;;;;;;4975332;28;19932;-65
2023/09/15 14:24:13;;;;;;;;;;;;;;;;;;4974942;28;19997;-64
2023/09/15 14:26:38;;;;;;;;;;;;;;;;;;4977922;28;20664;-65
2023/09/15 14:29:03;;;;;;;;;;;;;;;;;;4975177;28;20859;-63
2023/09/15 14:31:31;;;;;;;;;;;;;;;;;;4993801;28;19948;-63
2023/09/15 14:33:59;;;;;;;;;;;;;;;;;;4971283;28;20361;-63
2023/09/15 14:36:24;;;;;;;;;;;;;;;;;;4976264;28;19929;-63
2023/09/15 14:38:52;;;;;;;;;;;;;;;;;;4993620;28;19971;-62
2023/09/15 14:41:20;;;;;;;;;;;;;;;;;;4974542;28;19929;-64
2023/09/15 14:43:46;;;;;;;;;;;;;;;;;;4975348;28;20024;-63
2023/09/15 14:46:16;;;;;;;;;;;;;;;;;;4991591;28;19918;-64
2023/09/15 14:48:49;;;;;;;;;;;;;;;;;;4977175;28;19924;-64
2023/09/15 14:51:14;;;;;;;;;;;;;;;;;;4988795;28;20512;-63
2023/09/15 14:53:43;;;;;;;;;;;;;;;;;;4994781;28;20639;-64
2023/09/15 14:56:10;;;;;;;;;;;;;;;;;;4974473;28;20004;-64
2023/09/15 14:58:37;;;;;;;;;;;;;;;;;;4994515;28;19932;-65
2023/09/15 15:01:04;;;;;;;;;;;;;;;;;;4991032;28;20024;-66
2023/09/15 15:03:32;;;;;;;;;;;;;;;;;;4990872;28;19967;-64
2023/09/15 15:06:00;;;;;;;;;;;;;;;;;;4975906;28;20467;-64
2023/09/15 15:08:32;;;;;;;;;;;;;;;;;;4990909;28;20072;-64
2023/09/15 15:11:00;;;;;;;;;;;;;;;;;;4957397;28;20365;-64
2023/09/15 15:13:29;;;;;;;;;;;;;;;;;;4973188;28;20008;-65
2023/09/15 15:15:57;;;;;;;;;;;;;;;;;;4973422;28;19917;-64
2023/09/15 15:18:25;;;;;;;;;;;;;;;;;;4971279;28;19932;-67
2023/09/15 15:20:52;;;;;;;;;;;;;;;;;;4972564;28;19922;-68
2023/09/15 15:23:17;;;;;;;;;;;;;;;;;;4951291;28;19925;-68
2023/09/15 15:25:43;;;;;;;;;;;;;;;;;;4988976;28;20795;-66
2023/09/15 15:28:11;;;;;;;;;;;;;;;;;;4956403;28;19975;-69
2023/09/15 15:30:37;;;;;;;;;;;;;;;;;;4971898;28;19925;-67
2023/09/15 15:33:04;;;;;;;;;;;;;;;;;;4993861;28;19922;-67
2023/09/15 15:35:30;;;;;;;;;;;;;;;;;;4956911;28;20012;-68
2023/09/15 15:37:56;;;;;;;;;;;;;;;;;;4973157;28;19951;-67
2023/09/15 15:40:21;;;;;;;;;;;;;;;;;;4955396;28;20572;-68
2023/09/15 15:42:47;;;;;;;;;;;;;;;;;;4976344;28;21875;-68
2023/09/15 15:45:13;;;;;;;;;;;;;;;;;;4971884;28;19936;-67
2023/09/15 15:47:42;;;;;;;;;;;;;;;;;;4976075;28;20053;-67
2023/09/15 15:50:07;;;;;;;;;;;;;;;;;;4969286;28;19947;-68
2023/09/15 15:52:35;;;;;;;;;;;;;;;;;;4992819;28;19992;-70
2023/09/15 15:55:02;;;;;;;;;;;;;;;;;;4954639;28;20358;-68
2023/09/15 15:57:27;;;;;;;;;;;;;;;;;;4958294;28;19976;-66
2023/09/15 15:59:52;;;;;;;;;;;;;;;;;;4992976;28;20384;-67
2023/09/15 16:02:18;;;;;;;;;;;;;;;;;;4955508;28;19922;-67
2023/09/15 16:04:44;;;;;;;;;;;;;;;;;;4959418;28;19929;-66
2023/09/15 16:07:10;;;;;;;;;;;;;;;;;;4973610;28;19936;-70
2023/09/15 16:09:35;;;;;;;;;;;;;;;;;;4974283;28;19918;-65
2023/09/15 16:12:05;;;;;;;;;;;;;;;;;;4973250;28;20353;-66
2023/09/15 16:14:31;;;;;;;;;;;;;;;;;;4989616;28;19962;-67
2023/09/15 16:16:59;;;;;;;;;;;;;;;;;;4957121;28;20415;-67
2023/09/15 16:19:26;;;;;;;;;;;;;;;;;;4992072;28;20010;-66
2023/09/15 16:21:54;;;;;;;;;;;;;;;;;;4990656;28;20388;-66
2023/09/15 16:24:22;;;;;;;;;;;;;;;;;;4957286;28;19926;-67
2023/09/15 16:26:47;;;;;;;;;;;;;;;;;;4957868;28;19980;-67
2023/09/15 16:29:13;;;;;;;;;;;;;;;;;;4989204;28;19942;-66
2023/09/15 16:31:38;;;;;;;;;;;;;;;;;;4974681;28;19929;-66
2023/09/15 16:34:03;;;;;;;;;;;;;;;;;;4991248;28;19921;-67
2023/09/15 16:36:31;;;;;;;;;;;;;;;;;;4956807;28;19921;-67
2023/09/15 16:39:02;;;;;;;;;;;;;;;;;;4988862;28;20296;-67
2023/09/15 16:41:30;;;;;;;;;;;;;;;;;;4973065;28;19987;-68
2023/09/15 16:43:58;;;;;;;;;;;;;;;;;;4956273;28;19925;-68